createdAt,value
2022-10-02T00:02:19.424Z,3.87
2022-10-02T00:05:21.233Z,4.37
2022-10-02T00:07:55.948Z,4.03
2022-10-02T00:10:22.881Z,4.00
2022-10-02T00:12:55.084Z,4.20
2022-10-02T00:15:28.831Z,4.93
2022-10-02T00:18:01.693Z,4.50
2022-10-02T00:20:39.172Z,3.90
2022-10-02T00:23:33.255Z,4.23
2022-10-02T00:26:21.210Z,4.30
2022-10-02T00:29:02.683Z,4.03
2022-10-02T00:31:32.693Z,4.10
2022-10-02T00:34:33.148Z,4.63
2022-10-02T00:36:59.978Z,4.20
2022-10-02T00:39:52.215Z,3.83
2022-10-02T00:42:56.544Z,4.23
2022-10-02T00:45:46.717Z,3.97
2022-10-02T00:48:42.601Z,4.40
2022-10-02T00:51:24.359Z,3.80
2022-10-02T00:54:09.123Z,4.90
2022-10-02T00:57:13.417Z,5.30
2022-10-02T00:59:40.529Z,4.43
2022-10-02T01:02:28.794Z,5.17
2022-10-02T01:04:56.169Z,5.90
2022-10-02T01:07:23.353Z,5.50
2022-10-02T01:09:50.646Z,5.23
2022-10-02T01:12:17.653Z,5.30
2022-10-02T01:14:44.798Z,5.73
2022-10-02T01:17:26.626Z,4.87
2022-10-02T01:19:54.520Z,4.67
2022-10-02T01:22:36.013Z,4.50
2022-10-02T01:25:05.499Z,5.47
2022-10-02T01:27:38.805Z,4.97
2022-10-02T01:30:08.806Z,4.50
2022-10-02T01:32:42.660Z,5.80
2022-10-02T01:35:10.142Z,5.93
2022-10-02T01:37:40.989Z,4.80
2022-10-02T01:40:10.752Z,4.97
2022-10-02T01:42:39.131Z,5.20
2022-10-02T01:45:08.837Z,5.13
2022-10-02T01:48:00.981Z,4.30
2022-10-02T01:50:28.055Z,3.90
2022-10-02T01:53:01.028Z,4.63
2022-10-02T01:55:41.078Z,3.90
2022-10-02T01:58:43.266Z,4.20
2022-10-02T02:01:10.383Z,4.70
2022-10-02T02:03:55.499Z,4.20
2022-10-02T02:06:33.968Z,3.93
2022-10-02T02:09:15.211Z,4.30
2022-10-02T02:11:49.291Z,4.10
2022-10-02T02:14:32.354Z,4.50
2022-10-02T02:17:33.762Z,4.40
2022-10-02T02:20:05.967Z,3.90
2022-10-02T02:22:47.557Z,4.63
2022-10-02T02:25:18.675Z,4.97
2022-10-02T02:27:53.082Z,4.13
2022-10-02T02:30:21.769Z,5.13
2022-10-02T02:32:55.814Z,4.53
2022-10-02T02:35:29.916Z,4.20
2022-10-02T02:38:04.320Z,4.70
2022-10-02T02:40:36.517Z,4.73
2022-10-02T02:43:10.669Z,5.13
2022-10-02T02:46:13.339Z,5.93
2022-10-02T02:48:45.242Z,4.10
2022-10-02T02:51:23.511Z,6.93
2022-10-02T02:54:06.316Z,5.37
2022-10-02T02:56:33.702Z,4.63
2022-10-02T02:59:10.822Z,5.20
2022-10-02T03:01:37.563Z,4.67
2022-10-02T03:04:04.597Z,5.13
2022-10-02T03:06:37.144Z,4.87
2022-10-02T03:09:12.943Z,4.63
2022-10-02T03:12:04.312Z,4.20
2022-10-02T03:14:31.323Z,4.83
2022-10-02T03:17:22.674Z,5.17
2022-10-02T03:20:21.655Z,4.77
2022-10-02T03:23:06.475Z,4.40
2022-10-02T03:25:52.916Z,4.40
2022-10-02T03:28:37.365Z,5.07
2022-10-02T03:31:08.626Z,7.20
2022-10-02T03:33:38.077Z,4.93
2022-10-02T03:36:05.362Z,5.40
2022-10-02T03:38:33.770Z,4.70
2022-10-02T03:41:00.850Z,4.53
2022-10-02T03:43:30.545Z,4.57
2022-10-02T03:45:57.590Z,4.37
2022-10-02T03:48:24.713Z,5.40
2022-10-02T03:50:51.421Z,4.40
2022-10-02T03:53:20.725Z,4.93
2022-10-02T03:56:24.430Z,4.87
2022-10-02T03:58:54.954Z,3.57
2022-10-02T04:01:33.447Z,4.00
2022-10-02T04:04:17.626Z,4.57
2022-10-02T04:07:06.122Z,3.43
2022-10-02T04:09:35.480Z,3.90
2022-10-02T04:12:10.192Z,4.07
2022-10-02T04:15:00.347Z,4.40
2022-10-02T04:17:53.796Z,3.33
2022-10-02T04:20:28.773Z,8.53
2022-10-02T04:22:55.856Z,10.20
2022-10-02T04:25:29.919Z,4.43
2022-10-02T04:27:59.070Z,4.00
2022-10-02T04:30:26.075Z,4.10
2022-10-02T04:32:53.928Z,4.33
2022-10-02T04:35:33.578Z,3.70
2022-10-02T04:38:28.141Z,4.10
2022-10-02T04:41:22.450Z,3.50
2022-10-02T04:44:19.547Z,4.07
2022-10-02T04:46:46.136Z,4.10
2022-10-02T04:49:34.633Z,3.50
2022-10-02T04:52:19.652Z,3.97
2022-10-02T04:55:13.233Z,3.50
2022-10-02T04:58:05.172Z,3.57
2022-10-02T05:00:42.625Z,3.30
2022-10-02T05:03:12.100Z,4.57
2022-10-02T05:05:59.739Z,3.77
2022-10-02T05:08:57.171Z,3.57
2022-10-02T05:12:05.041Z,3.53
2022-10-02T05:14:43.288Z,3.47
2022-10-02T05:17:24.951Z,3.87
2022-10-02T05:20:10.861Z,3.90
2022-10-02T05:22:58.125Z,3.00
2022-10-02T05:25:44.751Z,3.70
2022-10-02T05:28:20.156Z,3.40
2022-10-02T05:30:50.937Z,3.37
2022-10-02T05:33:23.189Z,3.70
2022-10-02T05:36:13.041Z,3.53
2022-10-02T05:39:07.212Z,4.23
2022-10-02T05:42:00.317Z,3.40
2022-10-02T05:44:44.534Z,3.27
2022-10-02T05:47:12.512Z,4.13
2022-10-02T05:49:43.283Z,3.00
2022-10-02T05:52:18.506Z,3.83
2022-10-02T05:54:45.572Z,3.27
2022-10-02T05:57:28.026Z,3.43
2022-10-02T06:00:16.859Z,3.13
2022-10-02T06:02:49.290Z,3.73
2022-10-02T06:05:16.432Z,3.53
2022-10-02T06:07:47.210Z,3.57
2022-10-02T06:10:26.352Z,3.17
2022-10-02T06:13:02.233Z,3.23
2022-10-02T06:15:58.383Z,3.47
2022-10-02T06:18:29.820Z,3.33
2022-10-02T06:21:05.305Z,3.57
2022-10-02T06:23:43.527Z,3.20
2022-10-02T06:26:22.295Z,2.87
2022-10-02T06:29:05.201Z,3.10
2022-10-02T06:31:41.796Z,3.40
2022-10-02T06:34:13.090Z,3.67
2022-10-02T06:37:00.814Z,2.37
2022-10-02T06:39:59.584Z,2.23
2022-10-02T06:42:35.374Z,2.67
2022-10-02T06:45:23.908Z,2.30
2022-10-02T06:48:09.626Z,2.40
2022-10-02T06:51:03.651Z,2.43
2022-10-02T06:53:57.675Z,3.03
2022-10-02T06:56:36.262Z,2.30
2022-10-02T06:59:14.931Z,2.37
2022-10-02T07:02:04.011Z,2.40
2022-10-02T07:04:51.406Z,2.10
2022-10-02T07:07:40.883Z,2.50
2022-10-02T07:10:26.466Z,2.13
2022-10-02T07:13:05.432Z,2.20
2022-10-02T07:15:56.715Z,1.83
2022-10-02T07:18:42.656Z,2.10
2022-10-02T07:21:27.219Z,2.10
2022-10-02T07:24:05.499Z,1.70
2022-10-02T07:26:37.871Z,2.73
2022-10-02T07:29:26.075Z,2.23
2022-10-02T07:32:01.889Z,2.33
2022-10-02T07:34:46.358Z,2.27
2022-10-02T07:37:13.401Z,2.20
2022-10-02T07:39:53.775Z,1.90
2022-10-02T07:43:07.022Z,1.73
2022-10-02T07:45:44.206Z,1.77
2022-10-02T07:48:40.446Z,1.60
2022-10-02T07:51:49.738Z,1.53
2022-10-02T07:54:54.727Z,2.17
2022-10-02T07:57:21.773Z,2.10
2022-10-02T07:59:51.550Z,1.40
2022-10-02T08:02:42.661Z,1.80
2022-10-02T08:05:36.598Z,1.97
2022-10-02T08:08:47.746Z,1.50
2022-10-02T08:11:25.354Z,1.40
2022-10-02T08:13:59.367Z,2.40
2022-10-02T08:16:36.753Z,1.63
2022-10-02T08:19:08.700Z,1.57
2022-10-02T08:21:41.828Z,1.43
2022-10-02T08:24:16.056Z,1.70
2022-10-02T08:26:57.753Z,1.63
2022-10-02T08:29:46.618Z,1.70
2022-10-02T08:32:14.392Z,1.73
2022-10-02T08:34:41.963Z,2.00
2022-10-02T08:37:08.976Z,1.87
2022-10-02T08:39:36.030Z,1.80
2022-10-02T08:42:17.671Z,1.63
2022-10-02T08:45:05.299Z,1.77
2022-10-02T08:47:33.196Z,1.80
2022-10-02T08:50:31.483Z,1.80
2022-10-02T08:53:12.874Z,1.80
2022-10-02T08:55:39.982Z,1.80
2022-10-02T08:58:28.016Z,1.70
2022-10-02T09:01:35.054Z,1.80
2022-10-02T09:04:34.242Z,1.60
2022-10-02T09:07:50.159Z,1.87
2022-10-02T09:10:51.756Z,1.93
2022-10-02T09:13:33.235Z,1.80
2022-10-02T09:16:09.131Z,1.60
2022-10-02T09:19:03.414Z,1.57
2022-10-02T09:21:50.922Z,2.00
2022-10-02T09:24:35.344Z,1.50
2022-10-02T09:27:23.567Z,1.40
2022-10-02T09:30:02.341Z,1.80
2022-10-02T09:33:00.096Z,1.80
2022-10-02T09:35:51.132Z,1.80
2022-10-02T09:38:53.360Z,2.37
2022-10-02T09:41:43.031Z,1.93
2022-10-02T09:44:40.098Z,2.13
2022-10-02T09:47:25.179Z,1.97
2022-10-02T09:50:29.211Z,2.17
2022-10-02T09:53:01.770Z,1.70
2022-10-02T09:55:36.691Z,1.87
2022-10-02T09:58:31.240Z,1.93
2022-10-02T10:01:35.697Z,2.20
2022-10-02T10:04:21.251Z,2.03
2022-10-02T10:07:22.351Z,2.20
2022-10-02T10:10:07.096Z,2.27
2022-10-02T10:13:12.303Z,1.97
2022-10-02T10:16:04.038Z,2.37
2022-10-02T10:18:48.701Z,1.90
2022-10-02T10:21:52.753Z,2.13
2022-10-02T10:24:37.630Z,1.97
2022-10-02T10:27:30.211Z,1.80
2022-10-02T10:30:15.870Z,1.80
2022-10-02T10:33:08.182Z,1.90
2022-10-02T10:35:58.886Z,2.20
2022-10-02T10:38:59.177Z,1.60
2022-10-02T10:42:14.548Z,1.97
2022-10-02T10:45:03.901Z,2.07
2022-10-02T10:47:30.614Z,2.00
2022-10-02T10:50:15.393Z,2.47
2022-10-02T10:52:58.097Z,2.47
2022-10-02T10:55:45.243Z,1.90
2022-10-02T10:58:21.316Z,1.70
2022-10-02T11:01:13.071Z,5.57
2022-10-02T11:04:26.702Z,4.13
2022-10-02T11:07:02.020Z,2.37
2022-10-02T11:09:34.812Z,1.70
2022-10-02T11:12:24.715Z,1.97
2022-10-02T11:15:14.577Z,2.30
2022-10-02T11:17:56.416Z,2.43
2022-10-02T11:20:47.695Z,2.13
2022-10-02T11:23:25.966Z,2.10
2022-10-02T11:26:11.339Z,2.00
2022-10-02T11:28:47.348Z,2.20
2022-10-02T11:31:37.564Z,2.10
2022-10-02T11:34:08.046Z,2.03
2022-10-02T11:37:05.780Z,2.33
2022-10-02T11:39:57.163Z,2.53
2022-10-02T11:42:23.767Z,1.80
2022-10-02T11:45:04.654Z,2.10
2022-10-02T11:47:55.057Z,2.20
2022-10-02T11:50:40.779Z,3.80
2022-10-02T11:53:29.297Z,4.87
2022-10-02T11:56:36.147Z,2.20
2022-10-02T11:59:18.310Z,2.17
2022-10-02T12:01:52.288Z,2.23
2022-10-02T12:04:26.230Z,2.20
2022-10-02T12:07:07.884Z,2.10
2022-10-02T12:10:12.100Z,2.17
2022-10-02T12:12:51.521Z,2.20
2022-10-02T12:15:34.195Z,2.20
2022-10-02T12:18:26.887Z,1.93
2022-10-02T12:21:39.676Z,2.40
2022-10-02T12:25:07.375Z,2.27
2022-10-02T12:27:48.789Z,2.60
2022-10-02T12:30:20.296Z,2.50
2022-10-02T12:33:03.130Z,2.50
2022-10-02T12:35:48.525Z,2.37
2022-10-02T12:38:16.288Z,2.20
2022-10-02T12:40:57.902Z,2.30
2022-10-02T12:43:45.700Z,2.13
2022-10-02T12:46:23.335Z,2.47
2022-10-02T12:49:04.975Z,2.10
2022-10-02T12:51:59.178Z,2.40
2022-10-02T12:55:11.080Z,2.07
2022-10-02T12:58:03.756Z,2.60
2022-10-02T13:01:11.092Z,2.70
2022-10-02T13:04:16.332Z,1.93
2022-10-02T13:07:01.515Z,2.00
2022-10-02T13:10:01.703Z,2.20
2022-10-02T13:12:41.285Z,2.60
2022-10-02T13:15:17.232Z,2.37
2022-10-02T13:17:46.876Z,2.70
2022-10-02T13:20:16.389Z,2.40
2022-10-02T13:22:49.106Z,2.28
2022-10-02T13:25:34.344Z,2.33
2022-10-02T13:28:22.824Z,2.60
2022-10-02T13:31:10.826Z,2.92
2022-10-02T13:33:58.272Z,2.78
2022-10-02T13:37:00.289Z,2.63
2022-10-02T13:40:02.655Z,2.70
2022-10-02T13:42:41.045Z,2.40
2022-10-02T13:45:24.572Z,2.67
2022-10-02T13:47:56.687Z,2.80
2022-10-02T13:50:55.144Z,2.60
2022-10-02T13:53:48.200Z,2.50
2022-10-02T13:56:50.217Z,3.07
2022-10-02T13:59:22.626Z,2.93
2022-10-02T14:02:04.333Z,13.73
2022-10-02T14:04:39.797Z,3.57
2022-10-02T14:07:25.016Z,4.73
2022-10-02T14:09:57.705Z,3.57
2022-10-02T14:12:30.426Z,2.87
2022-10-02T14:15:26.345Z,2.73
2022-10-02T14:18:26.429Z,3.07
2022-10-02T14:21:09.292Z,3.70
2022-10-02T14:23:57.422Z,3.60
2022-10-02T14:26:32.883Z,3.10
2022-10-02T14:29:08.690Z,2.70
2022-10-02T14:32:02.754Z,2.70
2022-10-02T14:34:53.060Z,2.87
2022-10-02T14:38:05.252Z,2.97
2022-10-02T14:40:49.961Z,3.93
2022-10-02T14:43:31.050Z,4.40
2022-10-02T14:46:19.590Z,4.37
2022-10-02T14:48:55.466Z,3.50
2022-10-02T14:51:59.379Z,3.70
2022-10-02T14:54:51.214Z,3.90
2022-10-02T14:57:55.604Z,3.77
2022-10-02T15:00:24.739Z,2.83
2022-10-02T15:02:57.190Z,3.80
2022-10-02T15:05:39.043Z,3.63
2022-10-02T15:08:14.818Z,3.40
2022-10-02T15:10:42.516Z,3.20
2022-10-02T15:13:43.794Z,3.20
2022-10-02T15:16:44.399Z,2.87
2022-10-02T15:19:24.404Z,2.97
2022-10-02T15:22:01.990Z,6.53
2022-10-02T15:24:44.407Z,3.20
2022-10-02T15:27:37.493Z,2.77
2022-10-02T15:30:04.611Z,5.00
2022-10-02T15:32:59.107Z,4.37
2022-10-02T15:35:47.215Z,3.77
2022-10-02T15:38:44.820Z,3.10
2022-10-02T15:41:42.099Z,3.60
2022-10-02T15:44:16.364Z,3.23
2022-10-02T15:47:07.311Z,3.43
2022-10-02T15:50:07.273Z,2.90
2022-10-02T15:52:42.683Z,2.90
2022-10-02T15:55:40.431Z,4.00
2022-10-02T15:58:39.823Z,3.40
2022-10-02T16:01:21.853Z,3.00
2022-10-02T16:04:08.859Z,3.10
2022-10-02T16:07:13.993Z,3.03
2022-10-02T16:09:41.029Z,2.83
2022-10-02T16:12:29.681Z,4.30
2022-10-02T16:15:04.038Z,12.07
2022-10-02T16:17:48.422Z,12.87
2022-10-02T16:20:22.004Z,7.03
2022-10-02T16:22:48.643Z,8.10
2022-10-02T16:25:43.605Z,5.83
2022-10-02T16:28:29.075Z,6.80
2022-10-02T16:31:20.977Z,3.67
2022-10-02T16:34:15.094Z,3.10
2022-10-02T16:36:53.691Z,3.33
2022-10-02T16:39:35.353Z,2.77
2022-10-02T16:42:21.214Z,3.40
2022-10-02T16:45:02.733Z,3.40
2022-10-02T16:47:50.384Z,3.97
2022-10-02T16:50:19.833Z,4.33
2022-10-02T16:52:55.886Z,7.40
2022-10-02T16:55:45.205Z,5.87
2022-10-02T16:58:29.780Z,7.10
2022-10-02T17:01:03.271Z,6.13
2022-10-02T17:03:44.766Z,5.73
2022-10-02T17:06:29.408Z,4.63
2022-10-02T17:09:17.168Z,4.37
2022-10-02T17:12:21.049Z,3.97
2022-10-02T17:14:48.763Z,4.43
2022-10-02T17:17:24.607Z,4.47
2022-10-02T17:20:17.728Z,4.50
2022-10-02T17:22:57.127Z,6.50
2022-10-02T17:25:48.531Z,4.90
2022-10-02T17:28:26.222Z,5.37
2022-10-02T17:30:53.269Z,4.77
2022-10-02T17:33:21.680Z,4.40
2022-10-02T17:35:48.300Z,4.60
2022-10-02T17:38:33.810Z,4.80
2022-10-02T17:41:06.640Z,7.00
2022-10-02T17:43:50.966Z,5.33
2022-10-02T17:46:34.957Z,4.43
2022-10-02T17:49:23.923Z,4.67
2022-10-02T17:52:33.913Z,4.57
2022-10-02T17:55:22.266Z,5.60
2022-10-02T17:57:59.903Z,5.47
2022-10-02T18:00:27.638Z,7.20
2022-10-02T18:03:43.749Z,5.20
2022-10-02T18:06:21.025Z,4.70
2022-10-02T18:09:25.795Z,4.57
2022-10-02T18:12:33.797Z,5.70
2022-10-02T18:15:00.837Z,5.33
2022-10-02T18:18:13.958Z,4.97
2022-10-02T18:20:50.123Z,4.60
2022-10-02T18:23:45.779Z,5.20
2022-10-02T18:26:33.751Z,5.23
2022-10-02T18:29:21.445Z,5.40
2022-10-02T18:32:21.808Z,4.80
2022-10-02T18:35:14.179Z,5.10
2022-10-02T18:37:54.535Z,5.37
2022-10-02T18:40:27.015Z,4.87
2022-10-02T18:42:54.045Z,4.87
2022-10-02T18:45:45.144Z,5.20
2022-10-02T18:48:29.910Z,5.50
2022-10-02T18:51:31.825Z,4.70
2022-10-02T18:54:01.535Z,4.90
2022-10-02T18:56:59.628Z,5.07
2022-10-02T19:00:00.937Z,5.60
2022-10-02T19:02:40.769Z,5.73
2022-10-02T19:05:35.389Z,5.97
2022-10-02T19:08:04.867Z,6.03
2022-10-02T19:10:31.481Z,5.83
2022-10-02T19:13:01.263Z,5.20
2022-10-02T19:15:32.394Z,6.00
2022-10-02T19:18:04.817Z,5.60
2022-10-02T19:20:42.033Z,5.30
2022-10-02T19:23:17.037Z,5.77
2022-10-02T19:25:46.989Z,6.33
2022-10-02T19:28:20.943Z,6.80
2022-10-02T19:30:55.831Z,7.20
2022-10-02T19:33:32.122Z,6.60
2022-10-02T19:36:04.234Z,8.50
2022-10-02T19:38:33.886Z,7.17
2022-10-02T19:41:08.748Z,7.43
2022-10-02T19:43:43.781Z,6.50
2022-10-02T19:46:11.258Z,5.13
2022-10-02T19:48:38.719Z,5.47
2022-10-02T19:51:14.903Z,5.00
2022-10-02T19:53:42.244Z,5.43
2022-10-02T19:56:24.480Z,5.20
2022-10-02T19:58:58.606Z,5.70
2022-10-02T20:01:35.853Z,5.30
2022-10-02T20:04:05.092Z,5.30
2022-10-02T20:06:37.577Z,4.50
2022-10-02T20:09:31.781Z,4.30
2022-10-02T20:12:04.481Z,4.53
2022-10-02T20:14:47.413Z,5.83
2022-10-02T20:17:17.707Z,5.97
2022-10-02T20:19:52.784Z,6.07
2022-10-02T20:22:25.268Z,5.33
2022-10-02T20:24:54.955Z,5.97
2022-10-02T20:27:34.750Z,4.33
2022-10-02T20:30:11.546Z,4.60
2022-10-02T20:32:46.668Z,3.93
2022-10-02T20:35:20.494Z,4.97
2022-10-02T20:37:51.260Z,4.17
2022-10-02T20:40:21.809Z,4.87
2022-10-02T20:43:00.771Z,13.60
2022-10-02T20:45:46.424Z,9.83
2022-10-02T20:49:07.414Z,6.73
2022-10-02T20:51:53.985Z,8.23
2022-10-02T20:54:38.273Z,7.53
2022-10-02T20:57:33.681Z,6.07
2022-10-02T21:00:24.950Z,5.17
2022-10-02T21:03:25.334Z,4.57
2022-10-02T21:06:10.086Z,4.57
2022-10-02T21:09:04.256Z,4.23
2022-10-02T21:12:08.541Z,4.23
2022-10-02T21:14:35.687Z,3.97
2022-10-02T21:17:02.836Z,4.20
2022-10-02T21:19:57.459Z,4.60
2022-10-02T21:22:36.468Z,4.80
2022-10-02T21:25:36.476Z,7.67
2022-10-02T21:28:14.749Z,5.97
2022-10-02T21:30:56.732Z,6.30
2022-10-02T21:33:32.937Z,5.33
2022-10-02T21:36:15.589Z,5.10
2022-10-02T21:39:08.481Z,4.60
2022-10-02T21:41:56.721Z,4.30
2022-10-02T21:44:26.382Z,3.83
2022-10-02T21:47:14.464Z,4.13
2022-10-02T21:49:56.084Z,4.43
2022-10-02T21:53:09.575Z,3.50
2022-10-02T21:56:00.890Z,3.50
2022-10-02T21:58:49.421Z,3.73
2022-10-02T22:01:51.745Z,3.80
2022-10-02T22:04:46.279Z,4.80
2022-10-02T22:07:23.323Z,4.07
2022-10-02T22:10:02.471Z,4.20
2022-10-02T22:13:02.214Z,4.40
2022-10-02T22:15:39.023Z,3.70
2022-10-02T22:18:32.403Z,4.87
2022-10-02T22:20:59.419Z,6.63
2022-10-02T22:23:46.922Z,5.97
2022-10-02T22:26:22.796Z,4.90
2022-10-02T22:28:55.518Z,5.50
2022-10-02T22:31:41.663Z,5.00
2022-10-02T22:34:22.424Z,5.03
2022-10-02T22:37:01.520Z,4.77
2022-10-02T22:39:33.996Z,5.00
2022-10-02T22:42:23.530Z,4.30
2022-10-02T22:45:11.721Z,4.33
2022-10-02T22:47:52.320Z,4.07
2022-10-02T22:50:32.243Z,4.57
2022-10-02T22:53:20.266Z,4.80
2022-10-02T22:55:57.435Z,5.87
2022-10-02T22:58:44.346Z,5.30
2022-10-02T23:01:13.842Z,5.50
2022-10-02T23:03:56.837Z,5.40
2022-10-02T23:06:43.299Z,5.43
2022-10-02T23:09:18.778Z,4.53
2022-10-02T23:12:05.830Z,4.40
2022-10-02T23:14:42.217Z,4.73
2022-10-02T23:17:37.223Z,4.50
2022-10-02T23:20:14.125Z,4.10
2022-10-02T23:22:49.564Z,4.00
2022-10-02T23:25:16.261Z,3.87
2022-10-02T23:28:18.339Z,3.80
2022-10-02T23:30:56.957Z,4.60
2022-10-02T23:33:38.745Z,3.77
2022-10-02T23:36:15.848Z,4.00
2022-10-02T23:39:12.746Z,4.17
2022-10-02T23:41:47.517Z,3.70
2022-10-02T23:44:32.809Z,3.77
2022-10-02T23:47:02.648Z,4.07
2022-10-02T23:49:39.522Z,4.73
2022-10-02T23:52:24.601Z,4.50
2022-10-02T23:55:14.097Z,4.50
2022-10-02T23:57:52.897Z,4.13
